Time,TemperatureF,DewpointF,PressureIn,WindDirection,WindDirectionDegrees,WindSpeedMPH,WindSpeedGustMPH,Humidity,HourlyPrecipIn,Conditions,Clouds,dailyrainin,SoftwareType,DateUTC
2013-01-27 00:09:00,28.5,25.0,30.29,East,99,0.0,0.0,88,0.00,,,0.01,weatherlink.com 1.10,2013-01-27 06:09:00,
2013-01-27 00:24:00,28.2,26.0,30.28,East,99,0.0,1.0,90,0.00,,,0.01,weatherlink.com 1.10,2013-01-27 06:24:00,
2013-01-27 00:39:00,28.8,26.0,30.28,East,99,0.0,1.0,90,0.00,,,0.01,weatherlink.com 1.10,2013-01-27 06:39:00,
2013-01-27 00:54:00,29.4,27.0,30.27,East,99,0.0,2.0,91,0.00,,,0.01,weatherlink.com 1.10,2013-01-27 06:54:00,
2013-01-27 01:24:00,29.7,27.0,30.28,East,99,0.0,1.0,90,0.00,,,0.01,weatherlink.com 1.10,2013-01-27 07:24:00,
2013-01-27 01:39:00,29.3,27.0,30.28,East,99,0.0,1.0,91,0.00,,,0.00,weatherlink.com 1.10,2013-01-27 07:39:00,
2013-01-27 01:54:00,29.4,27.0,30.27,ESE,111,0.0,4.0,92,0.00,,,0.00,weatherlink.com 1.10,2013-01-27 07:54:00,
2013-01-27 02:09:00,29.3,27.0,30.27,ESE,111,0.0,1.0,91,0.00,,,0.00,weatherlink.com 1.10,2013-01-27 08:09:00,
2013-01-27 02:24:00,29.5,28.0,30.27,ESE,111,0.0,0.0,92,0.00,,,0.00,weatherlink.com 1.10,2013-01-27 08:24:00,
2013-01-27 02:39:00,30.2,28.0,30.26,East,87,0.0,2.0,92,0.00,,,0.00,weatherlink.com 1.10,2013-01-27 08:39:00,
2013-01-27 02:54:00,30.4,28.0,30.27,East,87,0.0,2.0,91,0.00,,,0.00,weatherlink.com 1.10,2013-01-27 08:54:00,
2013-01-27 03:09:00,30.1,28.0,30.27,East,89,0.0,2.0,91,0.00,,,0.00,weatherlink.com 1.10,2013-01-27 09:09:00,
2013-01-27 03:24:00,29.6,27.0,30.26,East,89,0.0,1.0,91,0.00,,,0.00,weatherlink.com 1.10,2013-01-27 09:24:00,
2013-01-27 03:39:00,29.7,28.0,30.26,East,90,1.0,2.0,92,0.00,,,0.00,weatherlink.com 1.10,2013-01-27 09:39:00,
2013-01-27 03:54:00,29.3,27.0,30.26,East,90,0.0,1.0,91,0.00,,,0.00,weatherlink.com 1.10,2013-01-27 09:54:00,
2013-01-27 04:09:00,28.9,27.0,30.25,East,90,0.0,2.0,93,0.00,,,0.00,weatherlink.com 1.10,2013-01-27 10:09:00,
2013-01-27 04:25:00,29.4,28.0,30.25,East,90,0.0,2.0,93,0.00,,,0.00,weatherlink.com 1.10,2013-01-27 10:25:00,
2013-01-27 04:40:00,30.8,29.0,30.25,East,90,0.0,1.0,93,0.00,,,0.00,weatherlink.com 1.10,2013-01-27 10:40:00,
2013-01-27 04:55:00,31.2,29.0,30.24,East,90,0.0,2.0,93,0.00,,,0.00,weatherlink.com 1.10,2013-01-27 10:55:00,
2013-01-27 05:10:00,31.4,29.0,30.24,East,90,0.0,1.0,92,0.00,,,0.00,weatherlink.com 1.10,2013-01-27 11:10:00,
2013-01-27 05:25:00,31.6,30.0,30.24,East,90,1.0,1.0,92,0.00,,,0.00,weatherlink.com 1.10,2013-01-27 11:25:00,
2013-01-27 05:40:00,32.0,30.0,30.24,East,90,0.0,2.0,92,0.00,,,0.00,weatherlink.com 1.10,2013-01-27 11:40:00,
2013-01-27 05:55:00,32.3,30.0,30.25,East,90,1.0,2.0,92,0.00,,,0.00,weatherlink.com 1.10,2013-01-27 11:55:00,
2013-01-27 06:10:00,32.5,30.0,30.26,East,90,0.0,1.0,91,0.00,,,0.00,weatherlink.com 1.10,2013-01-27 12:10:00,
2013-01-27 06:25:00,32.6,30.0,30.25,East,90,0.0,2.0,91,0.00,,,0.00,weatherlink.com 1.10,2013-01-27 12:25:00,
2013-01-27 06:40:00,32.9,31.0,30.24,East,90,1.0,1.0,91,0.00,,,0.00,weatherlink.com 1.10,2013-01-27 12:40:00,
2013-01-27 06:55:00,33.0,31.0,30.25,East,90,0.0,2.0,91,0.00,,,0.00,weatherlink.com 1.10,2013-01-27 12:55:00,
2013-01-27 07:10:00,33.4,31.0,30.25,East,90,0.0,1.0,91,0.00,,,0.00,weatherlink.com 1.10,2013-01-27 13:10:00,
2013-01-27 07:25:00,33.8,32.0,30.26,East,90,0.0,1.0,91,0.00,,,0.00,weatherlink.com 1.10,2013-01-27 13:25:00,
2013-01-27 07:40:00,34.2,32.0,30.26,East,90,0.0,1.0,90,0.00,,,0.00,weatherlink.com 1.10,2013-01-27 13:40:00,
2013-01-27 07:55:00,34.4,32.0,30.27,East,90,1.0,1.0,90,0.00,,,0.00,weatherlink.com 1.10,2013-01-27 13:55:00,
2013-01-27 08:10:00,34.8,32.0,30.26,East,90,1.0,1.0,89,0.00,,,0.00,weatherlink.com 1.10,2013-01-27 14:10:00,
2013-01-27 08:25:00,35.1,32.0,30.27,East,90,0.0,2.0,89,0.00,,,0.00,weatherlink.com 1.10,2013-01-27 14:25:00,
2013-01-27 08:40:00,35.4,33.0,30.26,East,80,2.0,7.0,89,0.00,,,0.00,weatherlink.com 1.10,2013-01-27 14:40:00,
2013-01-27 08:55:00,35.9,33.0,30.25,SSE,148,0.0,4.0,89,0.00,,,0.00,weatherlink.com 1.10,2013-01-27 14:55:00,
2013-01-27 09:10:00,36.6,33.0,30.26,SSE,148,1.0,3.0,88,0.00,,,0.00,weatherlink.com 1.10,2013-01-27 15:10:00,
2013-01-27 09:25:00,37.0,34.0,30.26,SSE,148,1.0,4.0,87,0.00,,,0.00,weatherlink.com 1.10,2013-01-27 15:25:00,
2013-01-27 09:40:00,37.4,34.0,30.26,SSE,151,3.0,5.0,87,0.00,,,0.00,weatherlink.com 1.10,2013-01-27 15:40:00,
2013-01-27 09:55:00,37.8,35.0,30.26,SE,144,2.0,3.0,88,0.00,,,0.00,weatherlink.com 1.10,2013-01-27 15:55:00,
2013-01-27 10:10:00,38.3,35.0,30.25,SE,144,0.0,3.0,89,0.01,,,0.01,weatherlink.com 1.10,2013-01-27 16:10:00,
2013-01-27 10:25:00,39.0,37.0,30.25,SE,144,0.0,2.0,91,0.02,,,0.02,weatherlink.com 1.10,2013-01-27 16:25:00,
2013-01-27 10:40:00,39.5,37.0,30.25,SE,144,0.0,1.0,91,0.04,,,0.04,weatherlink.com 1.10,2013-01-27 16:40:00,
2013-01-27 10:55:00,39.6,38.0,30.24,SE,144,0.0,2.0,92,0.05,,,0.05,weatherlink.com 1.10,2013-01-27 16:55:00,
2013-01-27 11:10:00,39.7,38.0,30.24,SE,144,0.0,2.0,93,0.05,,,0.06,weatherlink.com 1.10,2013-01-27 17:10:00,
2013-01-27 11:25:00,40.3,39.0,30.24,SE,144,0.0,3.0,93,0.05,,,0.07,weatherlink.com 1.10,2013-01-27 17:25:00,
2013-01-27 11:40:00,40.5,39.0,30.23,SE,144,0.0,2.0,93,0.03,,,0.07,weatherlink.com 1.10,2013-01-27 17:40:00,
2013-01-27 11:56:00,41.0,39.0,30.22,SE,144,1.0,2.0,94,0.02,,,0.07,weatherlink.com 1.10,2013-01-27 17:56:00,
2013-01-27 12:11:00,41.3,40.0,30.21,SE,144,0.0,2.0,93,0.01,,,0.07,weatherlink.com 1.10,2013-01-27 18:11:00,
2013-01-27 12:26:00,41.5,40.0,30.20,SE,144,1.0,3.0,93,0.00,,,0.07,weatherlink.com 1.10,2013-01-27 18:26:00,
2013-01-27 12:41:00,41.7,40.0,30.20,SE,144,1.0,3.0,93,0.00,,,0.07,weatherlink.com 1.10,2013-01-27 18:41:00,
2013-01-27 12:56:00,41.7,40.0,30.18,SW,217,1.0,4.0,94,0.01,,,0.08,weatherlink.com 1.10,2013-01-27 18:56:00,
2013-01-27 13:11:00,42.2,41.0,30.17,West,266,1.0,2.0,95,0.01,,,0.08,weatherlink.com 1.10,2013-01-27 19:11:00,
2013-01-27 13:26:00,42.6,41.0,30.16,SE,138,0.0,3.0,95,0.01,,,0.08,weatherlink.com 1.10,2013-01-27 19:26:00,
2013-01-27 13:41:00,43.3,42.0,30.16,SE,138,0.0,2.0,96,0.01,,,0.08,weatherlink.com 1.10,2013-01-27 19:41:00,
2013-01-27 13:56:00,44.4,43.0,30.15,SE,132,3.0,4.0,96,0.00,,,0.08,weatherlink.com 1.10,2013-01-27 19:56:00,
2013-01-27 14:11:00,45.3,44.0,30.16,SE,133,2.0,4.0,95,0.00,,,0.08,weatherlink.com 1.10,2013-01-27 20:11:00,
2013-01-27 14:26:00,45.8,44.0,30.16,SE,134,4.0,4.0,93,0.00,,,0.08,weatherlink.com 1.10,2013-01-27 20:26:00,
2013-01-27 14:41:00,45.9,44.0,30.15,SE,134,2.0,5.0,91,0.00,,,0.08,weatherlink.com 1.10,2013-01-27 20:41:00,
2013-01-27 14:56:00,46.2,44.0,30.15,SSE,151,2.0,6.0,90,0.00,,,0.08,weatherlink.com 1.10,2013-01-27 20:56:00,
2013-01-27 15:11:00,46.5,44.0,30.14,SSE,147,3.0,5.0,90,0.00,,,0.08,weatherlink.com 1.10,2013-01-27 21:11:00,
2013-01-27 15:26:00,46.8,44.0,30.13,SSE,147,5.0,5.0,89,0.00,,,0.08,weatherlink.com 1.10,2013-01-27 21:26:00,
2013-01-27 15:41:00,47.2,44.0,30.13,SSE,166,2.0,5.0,88,0.00,,,0.08,weatherlink.com 1.10,2013-01-27 21:41:00,
2013-01-27 15:56:00,47.6,44.0,30.12,SSE,162,2.0,6.0,88,0.00,,,0.08,weatherlink.com 1.10,2013-01-27 21:56:00,
2013-01-27 16:11:00,47.9,44.0,30.12,SE,133,2.0,4.0,87,0.00,,,0.08,weatherlink.com 1.10,2013-01-27 22:11:00,
2013-01-27 16:26:00,47.9,44.0,30.12,SE,131,3.0,5.0,86,0.00,,,0.08,weatherlink.com 1.10,2013-01-27 22:26:00,
2013-01-27 16:41:00,48.1,44.0,30.12,SE,138,5.0,6.0,86,0.00,,,0.08,weatherlink.com 1.10,2013-01-27 22:41:00,
2013-01-27 16:56:00,47.8,44.0,30.13,SSE,152,3.0,3.0,86,0.00,,,0.08,weatherlink.com 1.10,2013-01-27 22:56:00,
2013-01-27 17:11:00,47.7,44.0,30.12,SSE,158,2.0,6.0,86,0.00,,,0.08,weatherlink.com 1.10,2013-01-27 23:11:00,
2013-01-27 17:26:00,47.5,44.0,30.12,SSE,150,1.0,4.0,86,0.00,,,0.08,weatherlink.com 1.10,2013-01-27 23:26:00,
2013-01-27 17:41:00,48.0,44.0,30.12,SSE,155,1.0,3.0,86,0.00,,,0.08,weatherlink.com 1.10,2013-01-27 23:41:00,
2013-01-27 17:56:00,48.7,44.0,30.12,SE,143,1.0,5.0,85,0.00,,,0.08,weatherlink.com 1.10,2013-01-27 23:56:00,
2013-01-27 18:11:00,48.8,44.0,30.12,SE,146,2.0,4.0,84,0.00,,,0.08,weatherlink.com 1.10,2013-01-28 00:11:00,
2013-01-27 18:26:00,48.8,44.0,30.13,SSE,166,0.0,6.0,84,0.00,,,0.08,weatherlink.com 1.10,2013-01-28 00:26:00,
2013-01-27 18:41:00,48.9,45.0,30.12,SSE,153,1.0,5.0,85,0.00,,,0.08,weatherlink.com 1.10,2013-01-28 00:41:00,
2013-01-27 18:56:00,49.2,45.0,30.12,SSE,157,2.0,5.0,84,0.00,,,0.08,weatherlink.com 1.10,2013-01-28 00:56:00,
2013-01-27 19:11:00,49.4,45.0,30.12,SSW,205,1.0,5.0,84,0.00,,,0.08,weatherlink.com 1.10,2013-01-28 01:11:00,
2013-01-27 19:26:00,49.3,45.0,30.12,SE,134,3.0,6.0,84,0.00,,,0.08,weatherlink.com 1.10,2013-01-28 01:26:00,
2013-01-27 19:41:00,49.4,45.0,30.12,SE,139,4.0,6.0,84,0.00,,,0.08,weatherlink.com 1.10,2013-01-28 01:41:00,
2013-01-27 19:56:00,49.7,45.0,30.12,SE,144,2.0,6.0,84,0.00,,,0.08,weatherlink.com 1.10,2013-01-28 01:56:00,
2013-01-27 20:11:00,50.0,45.0,30.12,South,184,4.0,10.0,84,0.00,,,0.08,weatherlink.com 1.10,2013-01-28 02:11:00,
2013-01-27 20:26:00,50.1,45.0,30.11,South,184,4.0,7.0,83,0.00,,,0.08,weatherlink.com 1.10,2013-01-28 02:26:00,
2013-01-27 20:41:00,50.0,45.0,30.11,SSE,148,2.0,8.0,83,0.00,,,0.08,weatherlink.com 1.10,2013-01-28 02:41:00,
2013-01-27 20:56:00,49.7,45.0,30.11,SSE,153,4.0,7.0,83,0.00,,,0.08,weatherlink.com 1.10,2013-01-28 02:56:00,
2013-01-27 21:11:00,49.4,44.0,30.10,SE,129,3.0,10.0,83,0.00,,,0.08,weatherlink.com 1.10,2013-01-28 03:11:00,
2013-01-27 21:27:00,49.4,44.0,30.10,SSE,163,4.0,8.0,83,0.00,,,0.08,weatherlink.com 1.10,2013-01-28 03:27:00,
2013-01-27 21:42:00,49.3,44.0,30.09,South,174,3.0,9.0,82,0.00,,,0.08,weatherlink.com 1.10,2013-01-28 03:42:00,
2013-01-27 21:57:00,49.1,44.0,30.09,SSE,151,3.0,8.0,82,0.00,,,0.08,weatherlink.com 1.10,2013-01-28 03:57:00,
2013-01-27 22:12:00,49.0,44.0,30.09,SSE,150,4.0,8.0,82,0.00,,,0.08,weatherlink.com 1.10,2013-01-28 04:12:00,
2013-01-27 22:27:00,49.1,44.0,30.09,SSE,156,7.0,9.0,82,0.00,,,0.08,weatherlink.com 1.10,2013-01-28 04:27:00,
2013-01-27 22:42:00,49.4,44.0,30.09,South,187,4.0,9.0,81,0.00,,,0.08,weatherlink.com 1.10,2013-01-28 04:42:00,
2013-01-27 22:57:00,49.2,43.0,30.09,SSE,167,3.0,10.0,80,0.00,,,0.08,weatherlink.com 1.10,2013-01-28 04:57:00,
2013-01-27 23:12:00,49.3,43.0,30.09,SSE,147,2.0,7.0,80,0.00,,,0.08,weatherlink.com 1.10,2013-01-28 05:12:00,
2013-01-27 23:27:00,49.2,44.0,30.10,SSW,212,5.0,9.0,81,0.00,,,0.08,weatherlink.com 1.10,2013-01-28 05:27:00,
2013-01-27 23:42:00,49.0,43.0,30.09,South,184,3.0,7.0,81,0.00,,,0.08,weatherlink.com 1.10,2013-01-28 05:42:00,
2013-01-27 23:57:00,49.5,44.0,30.09,SE,142,2.0,6.0,80,0.00,,,0.08,weatherlink.com 1.10,2013-01-28 05:57:00,